createdAt,value
2024-01-16T00:02:38.894Z,76.50
2024-01-16T00:05:24.599Z,76.70
2024-01-16T00:08:10.297Z,76.70
2024-01-16T00:10:56.032Z,76.90
2024-01-16T00:13:41.681Z,77.10
2024-01-16T00:16:27.104Z,77.70
2024-01-16T00:19:13.553Z,77.40
2024-01-16T00:22:01.245Z,77.50
2024-01-16T00:24:46.408Z,77.60
2024-01-16T00:27:32.027Z,77.90
2024-01-16T00:30:18.035Z,77.10
2024-01-16T00:33:04.056Z,76.80
2024-01-16T00:35:49.495Z,77.10
2024-01-16T00:38:35.031Z,76.40
2024-01-16T00:41:20.778Z,76.90
2024-01-16T00:44:06.328Z,76.10
2024-01-16T00:46:51.902Z,77.20
2024-01-16T00:49:38.058Z,80.30
2024-01-16T00:52:23.525Z,80.60
2024-01-16T00:55:09.394Z,81.00
2024-01-16T00:57:54.940Z,83.80
2024-01-16T01:00:40.272Z,86.00
2024-01-16T01:03:25.741Z,89.00
2024-01-16T01:06:11.237Z,92.00
2024-01-16T01:08:56.705Z,93.60
2024-01-16T01:11:42.236Z,93.40
2024-01-16T01:14:30.339Z,91.80
2024-01-16T01:17:16.007Z,88.40
2024-01-16T01:20:01.408Z,87.00
2024-01-16T01:22:47.609Z,85.50
2024-01-16T01:25:33.415Z,85.00
2024-01-16T01:28:18.885Z,82.70
2024-01-16T01:31:04.492Z,82.30
2024-01-16T01:33:49.936Z,82.50
2024-01-16T01:36:35.323Z,82.60
2024-01-16T01:39:20.715Z,82.60
2024-01-16T01:42:06.166Z,81.80
2024-01-16T01:44:51.678Z,80.30
2024-01-16T01:47:38.329Z,80.40
2024-01-16T01:50:24.092Z,78.40
2024-01-16T01:53:10.107Z,77.70
2024-01-16T01:55:56.492Z,77.60
2024-01-16T01:58:44.985Z,77.70
2024-01-16T02:01:32.882Z,77.50
2024-01-16T02:04:20.038Z,77.20
2024-01-16T02:07:05.674Z,77.10
2024-01-16T02:09:51.654Z,76.70
2024-01-16T02:12:36.851Z,77.00
2024-01-16T02:15:24.806Z,76.30
2024-01-16T02:18:10.351Z,76.50
2024-01-16T02:21:01.708Z,75.50
2024-01-16T02:23:47.587Z,75.30
2024-01-16T02:26:34.071Z,75.00
2024-01-16T02:29:19.729Z,75.20
2024-01-16T02:32:05.183Z,75.50
2024-01-16T02:34:51.612Z,75.60
2024-01-16T02:37:37.185Z,74.90
2024-01-16T02:40:22.669Z,75.30
2024-01-16T02:43:08.458Z,75.80
2024-01-16T02:45:54.368Z,74.80
2024-01-16T02:48:40.393Z,74.70
2024-01-16T02:51:25.764Z,76.40
2024-01-16T02:54:11.237Z,76.10
2024-01-16T02:56:56.746Z,75.80
2024-01-16T02:59:45.104Z,76.00
2024-01-16T03:02:31.157Z,75.70
2024-01-16T03:05:17.078Z,75.60
2024-01-16T03:08:02.384Z,76.80
2024-01-16T03:10:47.969Z,76.80
2024-01-16T03:13:33.592Z,77.20
2024-01-16T03:16:19.091Z,77.20
2024-01-16T03:19:04.760Z,76.20
2024-01-16T03:21:50.175Z,77.10
2024-01-16T03:24:35.576Z,76.30
2024-01-16T03:27:21.068Z,76.80
2024-01-16T03:30:07.724Z,76.80
2024-01-16T03:32:53.576Z,77.20
2024-01-16T03:35:39.051Z,78.10
2024-01-16T03:38:24.503Z,77.90
2024-01-16T03:41:11.776Z,76.90
2024-01-16T03:43:57.747Z,77.10
2024-01-16T03:46:43.342Z,77.30
2024-01-16T03:49:28.954Z,75.80
2024-01-16T03:52:14.456Z,75.30
2024-01-16T03:54:59.954Z,75.40
2024-01-16T03:57:45.310Z,75.90
2024-01-16T04:00:30.931Z,75.20
2024-01-16T04:03:16.637Z,75.50
2024-01-16T04:06:02.210Z,74.80
2024-01-16T04:08:47.668Z,75.40
2024-01-16T04:11:33.123Z,75.00
2024-01-16T04:14:19.473Z,74.30
2024-01-16T04:17:04.874Z,74.60
2024-01-16T04:19:50.369Z,75.30
2024-01-16T04:22:36.464Z,75.10
2024-01-16T04:25:21.908Z,75.10
2024-01-16T04:28:07.431Z,75.20
2024-01-16T04:30:53.176Z,75.70
2024-01-16T04:33:40.042Z,76.00
2024-01-16T04:36:26.134Z,75.30
2024-01-16T04:39:11.321Z,76.00
2024-01-16T04:41:56.849Z,76.00
2024-01-16T04:44:42.265Z,75.30
2024-01-16T04:47:27.980Z,76.00
2024-01-16T04:50:13.658Z,76.30
2024-01-16T04:53:01.082Z,76.10
2024-01-16T04:55:46.549Z,76.40
2024-01-16T04:58:32.143Z,75.80
2024-01-16T05:01:17.504Z,76.60
2024-01-16T05:04:04.760Z,77.10
2024-01-16T05:06:53.304Z,76.80
2024-01-16T05:09:38.532Z,77.30
2024-01-16T05:12:24.018Z,76.80
2024-01-16T05:15:12.345Z,76.70
2024-01-16T05:17:57.679Z,76.80
2024-01-16T05:20:43.185Z,76.80
2024-01-16T05:23:28.556Z,76.90
2024-01-16T05:26:14.670Z,76.60
2024-01-16T05:29:00.156Z,76.90
2024-01-16T05:31:45.651Z,76.20
2024-01-16T05:34:31.610Z,76.50
2024-01-16T05:37:16.902Z,77.10
2024-01-16T05:40:04.112Z,77.40
2024-01-16T05:42:50.753Z,77.50
2024-01-16T05:45:35.940Z,78.20
2024-01-16T05:48:21.816Z,78.30
2024-01-16T05:51:07.460Z,78.40
2024-01-16T05:53:52.843Z,78.40
2024-01-16T05:56:38.310Z,78.00
2024-01-16T05:59:23.653Z,77.50
2024-01-16T06:02:09.223Z,77.70
2024-01-16T06:04:54.690Z,78.20
2024-01-16T06:07:41.182Z,77.70
2024-01-16T06:10:26.909Z,78.00
2024-01-16T06:13:12.589Z,78.00
2024-01-16T06:15:58.136Z,78.20
2024-01-16T06:18:43.801Z,78.40
2024-01-16T06:21:29.120Z,78.60
2024-01-16T06:24:14.990Z,78.80
2024-01-16T06:27:00.307Z,79.90
2024-01-16T06:29:49.808Z,78.30
2024-01-16T06:32:35.501Z,78.90
2024-01-16T06:35:20.938Z,78.90
2024-01-16T06:38:06.263Z,78.70
2024-01-16T06:40:51.699Z,78.40
2024-01-16T06:43:37.200Z,78.50
2024-01-16T06:46:22.912Z,78.50
2024-01-16T06:49:08.606Z,78.90
2024-01-16T06:51:54.090Z,79.20
2024-01-16T06:54:39.735Z,78.60
2024-01-16T06:57:24.958Z,78.90
2024-01-16T07:00:10.847Z,79.30
2024-01-16T07:02:56.520Z,79.50
2024-01-16T07:05:42.456Z,80.10
2024-01-16T07:08:28.581Z,79.90
2024-01-16T07:11:14.907Z,80.20
2024-01-16T07:14:00.469Z,80.50
2024-01-16T07:16:46.074Z,80.20
2024-01-16T07:19:31.819Z,81.00
2024-01-16T07:22:17.685Z,80.80
2024-01-16T07:25:03.123Z,80.20
2024-01-16T07:27:50.839Z,80.00
2024-01-16T07:30:36.260Z,80.50
2024-01-16T07:33:22.213Z,80.90
2024-01-16T07:36:09.521Z,81.60
2024-01-16T07:38:54.729Z,81.00
2024-01-16T07:41:40.248Z,81.10
2024-01-16T07:44:25.737Z,80.60
2024-01-16T07:47:11.282Z,80.30
2024-01-16T07:49:56.769Z,79.80
2024-01-16T07:52:42.277Z,80.20
2024-01-16T07:55:27.899Z,80.30
2024-01-16T07:58:13.915Z,80.20
2024-01-16T08:00:59.352Z,79.50
2024-01-16T08:03:45.022Z,79.50
2024-01-16T08:06:31.368Z,79.60
2024-01-16T08:09:16.972Z,79.70
2024-01-16T08:12:03.771Z,79.60
2024-01-16T08:14:48.913Z,79.60
2024-01-16T08:17:35.286Z,79.60
2024-01-16T08:20:20.794Z,78.90
2024-01-16T08:23:06.076Z,79.00
2024-01-16T08:25:52.754Z,78.90
2024-01-16T08:28:37.978Z,78.50
2024-01-16T08:31:23.263Z,78.70
2024-01-16T08:34:09.018Z,78.50
2024-01-16T08:36:58.306Z,78.20
2024-01-16T08:39:44.289Z,77.80
2024-01-16T08:42:29.931Z,77.40
2024-01-16T08:45:16.021Z,77.60
2024-01-16T08:48:01.724Z,77.20
2024-01-16T08:50:47.443Z,77.30
2024-01-16T08:53:34.984Z,76.80
2024-01-16T08:56:21.720Z,77.10
2024-01-16T08:59:07.099Z,77.20
2024-01-16T09:01:52.923Z,76.90
2024-01-16T09:04:39.165Z,77.10
2024-01-16T09:07:24.543Z,77.60
2024-01-16T09:10:10.375Z,77.60
2024-01-16T09:12:55.792Z,77.50
2024-01-16T09:15:41.383Z,77.30
2024-01-16T09:18:27.288Z,77.80
2024-01-16T09:21:14.095Z,77.60
2024-01-16T09:23:59.935Z,77.80
2024-01-16T09:26:45.679Z,78.00
2024-01-16T09:29:31.384Z,78.20
2024-01-16T09:32:16.597Z,77.70
2024-01-16T09:35:05.640Z,77.70
2024-01-16T09:37:52.114Z,77.60
2024-01-16T09:40:38.105Z,77.30
2024-01-16T09:43:24.054Z,76.90
2024-01-16T09:46:11.853Z,77.20
2024-01-16T09:48:58.135Z,76.60
2024-01-16T09:51:44.666Z,76.60
2024-01-16T09:54:30.256Z,76.80
2024-01-16T09:57:16.964Z,76.50
2024-01-16T10:00:04.405Z,76.60
2024-01-16T10:02:54.086Z,76.70
2024-01-16T10:05:43.336Z,76.30
2024-01-16T10:08:31.178Z,75.90
2024-01-16T10:11:16.369Z,76.50
2024-01-16T10:14:02.336Z,76.30
2024-01-16T10:17:03.796Z,76.00
2024-01-16T10:19:59.439Z,76.20
2024-01-16T10:22:55.056Z,76.00
2024-01-16T10:25:40.802Z,76.10
2024-01-16T10:28:26.257Z,76.40
2024-01-16T10:31:15.202Z,76.10
2024-01-16T10:34:00.936Z,76.00
2024-01-16T10:36:46.017Z,76.10
2024-01-16T10:39:38.752Z,75.60
2024-01-16T10:42:29.154Z,75.40
2024-01-16T10:45:21.590Z,75.70
2024-01-16T10:48:09.289Z,75.80
2024-01-16T10:50:54.975Z,75.80
2024-01-16T10:53:44.151Z,75.40
2024-01-16T10:56:30.458Z,75.60
2024-01-16T10:59:38.993Z,75.30
2024-01-16T11:02:28.264Z,75.40
2024-01-16T11:05:14.041Z,75.50
2024-01-16T11:07:59.953Z,75.60
2024-01-16T11:10:45.859Z,76.20
2024-01-16T11:13:36.004Z,75.70
2024-01-16T11:16:23.937Z,75.60
2024-01-16T11:19:25.249Z,75.70
2024-01-16T11:22:19.368Z,75.70
2024-01-16T11:25:12.199Z,75.40
2024-01-16T11:28:09.406Z,75.40
2024-01-16T11:30:54.808Z,75.40
2024-01-16T11:33:40.636Z,75.60
2024-01-16T11:36:57.754Z,75.60
2024-01-16T11:39:43.156Z,75.80
2024-01-16T11:42:28.817Z,75.70
2024-01-16T11:45:30.161Z,75.50
2024-01-16T11:48:17.714Z,75.80
2024-01-16T11:51:24.354Z,75.60
2024-01-16T11:54:10.326Z,75.50
2024-01-16T11:57:41.022Z,75.40
2024-01-16T12:00:32.964Z,75.40
2024-01-16T12:03:31.024Z,75.50
2024-01-16T12:06:20.698Z,75.20
2024-01-16T12:09:17.309Z,75.20
2024-01-16T12:12:04.076Z,75.00
2024-01-16T12:14:56.324Z,74.30
2024-01-16T12:17:53.821Z,74.50
2024-01-16T12:20:40.248Z,73.80
2024-01-16T12:23:26.172Z,74.10
2024-01-16T12:26:21.534Z,74.60
2024-01-16T12:29:07.104Z,75.30
2024-01-16T12:32:09.362Z,75.40
2024-01-16T12:34:54.779Z,75.40
2024-01-16T12:37:40.300Z,75.00
2024-01-16T12:40:26.504Z,74.40
2024-01-16T12:43:12.056Z,74.40
2024-01-16T12:45:58.471Z,73.80
2024-01-16T12:48:53.356Z,74.00
2024-01-16T12:51:46.108Z,74.30
2024-01-16T12:54:31.570Z,74.30
2024-01-16T12:57:21.750Z,74.50
2024-01-16T13:00:27.065Z,73.90
2024-01-16T13:03:18.155Z,72.90
2024-01-16T13:06:05.639Z,72.70
2024-01-16T13:08:51.580Z,72.80
2024-01-16T13:11:56.077Z,72.00
2024-01-16T13:14:41.836Z,71.90
2024-01-16T13:17:27.375Z,71.70
2024-01-16T13:20:14.423Z,71.80
2024-01-16T13:22:59.839Z,72.30
2024-01-16T13:25:47.902Z,72.10
2024-01-16T13:28:33.343Z,72.20
2024-01-16T13:31:19.084Z,71.90
2024-01-16T13:34:05.518Z,71.80
2024-01-16T13:37:08.539Z,72.00
2024-01-16T13:39:57.961Z,72.50
2024-01-16T13:42:43.316Z,72.50
2024-01-16T13:45:29.219Z,72.70
2024-01-16T13:48:15.175Z,73.00
2024-01-16T13:51:00.848Z,73.00
2024-01-16T13:53:46.413Z,73.10
2024-01-16T13:56:50.793Z,73.20
2024-01-16T13:59:38.378Z,72.80
2024-01-16T14:02:24.009Z,73.30
2024-01-16T14:05:16.319Z,73.70
2024-01-16T14:08:01.765Z,74.00
2024-01-16T14:10:47.081Z,74.50
2024-01-16T14:13:32.753Z,74.80
2024-01-16T14:16:31.902Z,75.80
2024-01-16T14:19:23.337Z,77.10
2024-01-16T14:22:08.732Z,78.00
2024-01-16T14:24:54.335Z,79.20
2024-01-16T14:27:41.389Z,79.50
2024-01-16T14:30:27.951Z,79.70
2024-01-16T14:33:13.898Z,79.80
2024-01-16T14:36:02.223Z,80.20
2024-01-16T14:38:49.873Z,80.30
2024-01-16T14:41:35.379Z,80.20
2024-01-16T14:44:21.194Z,81.10
2024-01-16T14:47:06.717Z,81.30
2024-01-16T14:49:52.252Z,81.80
2024-01-16T14:52:37.958Z,82.30
2024-01-16T14:55:23.649Z,82.40
2024-01-16T14:58:09.548Z,83.10
2024-01-16T15:00:56.855Z,82.30
2024-01-16T15:03:42.244Z,82.40
2024-01-16T15:06:28.766Z,83.00
2024-01-16T15:09:14.567Z,82.60
2024-01-16T15:12:00.154Z,82.20
2024-01-16T15:14:45.712Z,82.70
2024-01-16T15:17:31.339Z,82.40
2024-01-16T15:20:16.951Z,83.00
2024-01-16T15:23:03.905Z,83.00
2024-01-16T15:25:49.136Z,83.30
2024-01-16T15:28:34.841Z,84.90
2024-01-16T15:31:20.426Z,85.40
2024-01-16T15:34:05.734Z,85.80
2024-01-16T15:36:51.190Z,85.90
2024-01-16T15:39:36.654Z,86.70
2024-01-16T15:42:23.043Z,86.10
2024-01-16T15:45:12.972Z,86.50
2024-01-16T15:47:58.210Z,87.10
2024-01-16T15:50:43.579Z,87.20
2024-01-16T15:53:29.180Z,87.30
2024-01-16T15:56:14.530Z,86.90
2024-01-16T15:58:59.876Z,86.80
2024-01-16T16:01:45.463Z,86.40
2024-01-16T16:04:31.149Z,85.90
2024-01-16T16:07:17.165Z,86.10
2024-01-16T16:10:02.477Z,86.60
2024-01-16T16:12:47.968Z,85.70
2024-01-16T16:15:33.432Z,85.00
2024-01-16T16:18:19.240Z,85.30
2024-01-16T16:21:05.645Z,84.20
2024-01-16T16:23:51.236Z,85.30
2024-01-16T16:26:43.601Z,84.50
2024-01-16T16:29:28.790Z,84.50
2024-01-16T16:32:14.202Z,84.30
2024-01-16T16:34:59.661Z,85.70
2024-01-16T16:37:45.384Z,85.60
2024-01-16T16:40:30.975Z,85.80
2024-01-16T16:43:16.518Z,85.90
2024-01-16T16:46:01.885Z,86.40
2024-01-16T16:48:48.822Z,86.10
2024-01-16T16:51:39.941Z,86.00
2024-01-16T16:54:25.796Z,85.70
2024-01-16T16:57:12.041Z,85.70
2024-01-16T16:59:58.083Z,85.60
2024-01-16T17:02:43.505Z,84.70
2024-01-16T17:05:29.149Z,84.70
2024-01-16T17:08:14.408Z,83.10
2024-01-16T17:11:02.668Z,81.80
2024-01-16T17:13:50.620Z,81.60
2024-01-16T17:16:36.185Z,80.70
2024-01-16T17:19:21.765Z,80.50
2024-01-16T17:22:07.245Z,78.50
2024-01-16T17:24:52.816Z,78.60
2024-01-16T17:27:40.213Z,78.40
2024-01-16T17:30:26.588Z,77.70
2024-01-16T17:33:11.989Z,78.40
2024-01-16T17:36:08.840Z,78.10
2024-01-16T17:38:59.907Z,76.90
2024-01-16T17:41:46.613Z,75.90
2024-01-16T17:44:38.030Z,76.70
2024-01-16T17:47:23.748Z,76.10
2024-01-16T17:50:10.007Z,75.00
2024-01-16T17:52:55.460Z,75.30
2024-01-16T17:55:40.693Z,74.30
2024-01-16T17:58:27.070Z,74.60
2024-01-16T18:01:12.932Z,74.90
2024-01-16T18:03:59.028Z,74.20
2024-01-16T18:06:45.101Z,74.60
2024-01-16T18:09:30.440Z,75.00
2024-01-16T18:12:16.002Z,74.20
2024-01-16T18:15:01.448Z,73.40
2024-01-16T18:17:48.922Z,74.10
2024-01-16T18:20:34.665Z,74.00
2024-01-16T18:23:22.030Z,73.70
2024-01-16T18:26:08.971Z,74.40
2024-01-16T18:28:55.527Z,73.90
2024-01-16T18:31:41.228Z,74.40
2024-01-16T18:34:26.574Z,74.00
2024-01-16T18:37:11.975Z,73.60
2024-01-16T18:39:57.571Z,74.00
2024-01-16T18:42:47.020Z,73.60
2024-01-16T18:45:32.197Z,73.20
2024-01-16T18:48:19.150Z,74.50
2024-01-16T18:51:05.820Z,74.60
2024-01-16T18:53:51.353Z,74.10
2024-01-16T18:56:38.199Z,74.10
2024-01-16T18:59:24.684Z,74.40
2024-01-16T19:02:10.549Z,73.80
2024-01-16T19:04:56.281Z,74.00
2024-01-16T19:07:43.850Z,74.10
2024-01-16T19:10:29.929Z,74.40
2024-01-16T19:13:16.757Z,73.40
2024-01-16T19:16:02.248Z,74.00
2024-01-16T19:18:47.891Z,74.00
2024-01-16T19:21:33.304Z,72.80
2024-01-16T19:24:22.429Z,73.20
2024-01-16T19:27:07.958Z,73.10
2024-01-16T19:29:53.483Z,72.70
2024-01-16T19:32:38.910Z,72.80
2024-01-16T19:35:24.518Z,72.80
2024-01-16T19:38:09.929Z,72.30
2024-01-16T19:40:55.463Z,72.20
2024-01-16T19:43:41.163Z,71.90
2024-01-16T19:46:26.707Z,72.00
2024-01-16T19:49:12.412Z,71.30
2024-01-16T19:51:57.719Z,71.50
2024-01-16T19:54:45.244Z,71.60
2024-01-16T19:57:30.973Z,71.40
2024-01-16T20:00:17.781Z,71.10
2024-01-16T20:03:08.222Z,71.20
2024-01-16T20:05:53.914Z,70.80
2024-01-16T20:08:39.960Z,71.20
2024-01-16T20:11:33.434Z,71.30
2024-01-16T20:14:18.824Z,71.60
2024-01-16T20:17:04.308Z,71.50
2024-01-16T20:19:49.748Z,71.50
2024-01-16T20:22:35.190Z,71.70
2024-01-16T20:25:21.084Z,72.20
2024-01-16T20:28:06.652Z,72.10
2024-01-16T20:30:52.430Z,71.50
2024-01-16T20:33:37.897Z,71.10
2024-01-16T20:36:23.551Z,71.50
2024-01-16T20:39:10.322Z,70.80
2024-01-16T20:41:56.359Z,71.40
2024-01-16T20:44:41.894Z,71.90
2024-01-16T20:47:28.666Z,72.00
2024-01-16T20:50:14.372Z,72.30
2024-01-16T20:53:00.863Z,72.50
2024-01-16T20:55:47.012Z,72.50
2024-01-16T20:58:32.776Z,72.70
2024-01-16T21:01:18.271Z,72.60
2024-01-16T21:04:04.104Z,72.50
2024-01-16T21:06:49.997Z,72.10
2024-01-16T21:09:35.944Z,72.20
2024-01-16T21:12:22.784Z,72.80
2024-01-16T21:15:08.672Z,72.50
2024-01-16T21:17:54.106Z,72.60
2024-01-16T21:20:39.437Z,72.80
2024-01-16T21:23:24.923Z,72.70
2024-01-16T21:26:11.013Z,72.50
2024-01-16T21:28:56.244Z,72.00
2024-01-16T21:31:49.689Z,72.60
2024-01-16T21:34:35.380Z,72.80
2024-01-16T21:37:20.757Z,73.40
2024-01-16T21:40:08.887Z,73.40
2024-01-16T21:42:54.276Z,73.20
2024-01-16T21:45:39.727Z,74.00
2024-01-16T21:48:25.507Z,73.60
2024-01-16T21:51:10.830Z,73.50
2024-01-16T21:53:57.075Z,73.60
2024-01-16T21:56:42.679Z,74.10
2024-01-16T21:59:28.117Z,73.90
2024-01-16T22:02:15.528Z,74.00
2024-01-16T22:05:01.136Z,74.20
2024-01-16T22:07:46.692Z,74.70
2024-01-16T22:10:32.107Z,74.60
2024-01-16T22:13:19.368Z,74.70
2024-01-16T22:16:06.555Z,74.60
2024-01-16T22:18:54.313Z,74.50
2024-01-16T22:21:41.696Z,74.50
2024-01-16T22:24:27.166Z,74.50
2024-01-16T22:27:12.820Z,74.20
2024-01-16T22:29:58.155Z,74.20
2024-01-16T22:32:45.040Z,73.70
2024-01-16T22:35:30.950Z,73.90
2024-01-16T22:38:16.682Z,72.70
2024-01-16T22:41:02.126Z,72.90
2024-01-16T22:43:47.609Z,73.00
2024-01-16T22:46:33.005Z,72.60
2024-01-16T22:49:18.612Z,72.70
2024-01-16T22:52:04.425Z,72.70
2024-01-16T22:54:49.866Z,73.30
2024-01-16T22:57:35.747Z,72.80
2024-01-16T23:00:22.397Z,73.20
2024-01-16T23:03:10.415Z,72.90
2024-01-16T23:05:55.826Z,72.90
2024-01-16T23:08:42.452Z,72.90
2024-01-16T23:11:28.335Z,72.80
2024-01-16T23:14:14.094Z,73.00
2024-01-16T23:16:59.655Z,73.00
2024-01-16T23:19:45.542Z,72.60
2024-01-16T23:22:31.998Z,72.60
2024-01-16T23:25:17.459Z,72.90
2024-01-16T23:28:02.906Z,73.00
2024-01-16T23:30:48.403Z,73.30
2024-01-16T23:33:34.590Z,72.50
2024-01-16T23:36:20.845Z,72.90
2024-01-16T23:39:06.623Z,73.50
2024-01-16T23:41:52.538Z,73.40
2024-01-16T23:44:42.051Z,73.50
2024-01-16T23:47:27.543Z,73.80
2024-01-16T23:50:13.040Z,73.60
2024-01-16T23:52:59.955Z,73.30
2024-01-16T23:55:46.362Z,73.40
2024-01-16T23:58:31.745Z,73.40
